Time;durP1;ratioP1;P1;durP2;ratioP2;P2;SDS_P1;SDS_P2;PMS_P1;PMS_P2;Temp;Humidity;BMP_temperature;BMP_pressure;BME280_temperature;BME280_humidity;BME280_pressure;Samples;Min_cycle;Max_cycle;Signal;HPM_P1;HPM_P2
2021/03/27 00:01:55;;;;;;;9.30;4.25;;;11.20;59.30;;;;;;5076059;28;20079;-65
2021/03/27 00:04:46;;;;;;;7.88;4.63;;;;;;;;;;5093930;28;20040;-67
2021/03/27 00:07:28;;;;;;;8.23;4.78;;;11.00;60.20;;;;;;5011610;28;20145;-66
2021/03/27 00:10:09;;;;;;;7.93;5.20;;;11.00;59.90;;;;;;5012028;28;20050;-66
2021/03/27 00:12:40;;;;;;;8.55;5.32;;;11.00;59.80;;;;;;5011765;28;20062;-64
2021/03/27 00:15:29;;;;;;;8.35;5.57;;;10.90;60.00;;;;;;4995323;28;20057;-66
2021/03/27 00:18:17;;;;;;;12.48;5.88;;;10.80;60.60;;;;;;5011495;28;20045;-64
2021/03/27 00:20:58;;;;;;;12.93;6.15;;;10.90;60.20;;;;;;5010794;28;20116;-65
2021/03/27 00:23:42;;;;;;;9.45;5.65;;;10.90;60.30;;;;;;4992318;28;20050;-65
2021/03/27 00:26:13;;;;;;;9.90;6.32;;;10.90;60.10;;;;;;4991932;28;20046;-66
2021/03/27 00:28:54;;;;;;;10.70;5.80;;;11.10;60.00;;;;;;4992023;28;20058;-65
2021/03/27 00:31:31;;;;;;;10.10;6.20;;;11.20;59.80;;;;;;4991709;28;20050;-66
2021/03/27 00:34:11;;;;;;;10.57;5.90;;;11.10;60.00;;;;;;4992093;28;20060;-66
2021/03/27 00:36:57;;;;;;;11.48;5.70;;;11.10;60.00;;;;;;4991714;28;20051;-66
2021/03/27 00:39:25;;;;;;;;;;;11.10;60.50;;;;;;4992356;28;20046;-66
2021/03/27 00:41:56;;;;;;;13.02;6.18;;;11.30;59.60;;;;;;4973708;28;19926;-66
2021/03/27 00:44:32;;;;;;;12.60;5.80;;;11.30;59.60;;;;;;5035289;28;20055;-65
2021/03/27 00:47:01;;;;;;;10.00;6.63;;;11.30;59.80;;;;;;5055274;28;20532;-67
2021/03/27 00:49:35;;;;;;;9.77;5.90;;;11.10;60.50;;;;;;5055652;28;20487;-66
2021/03/27 00:52:06;;;;;;;11.18;6.50;;;11.00;60.80;;;;;;5072122;28;20044;-66
2021/03/27 00:54:42;;;;;;;17.23;7.50;;;10.90;61.00;;;;;;5055617;28;20044;-67
2021/03/27 00:57:29;;;;;;;14.55;7.43;;;11.00;60.70;;;;;;5073504;28;20494;-65
2021/03/27 01:00:03;;;;;;;22.20;8.50;;;11.20;60.20;;;;;;5072847;28;20110;-66
2021/03/27 01:02:54;;;;;;;19.48;7.97;;;11.20;60.20;;;;;;5054929;28;20412;-65
2021/03/27 01:05:42;;;;;;;13.50;7.85;;;11.10;60.60;;;;;;5073084;28;20114;-65
2021/03/27 01:08:28;;;;;;;16.52;7.30;;;10.80;61.30;;;;;;5062392;28;20061;-66
2021/03/27 01:11:27;;;;;;;14.15;7.57;;;10.70;61.90;;;;;;5071988;28;20049;-65
2021/03/27 01:13:58;;;;;;;13.38;8.13;;;10.70;62.00;;;;;;5071320;28;20040;-66
2021/03/27 01:16:29;;;;;;;17.38;8.00;;;10.60;62.00;;;;;;5072401;28;20059;-67
2021/03/27 01:19:02;;;;;;;15.98;7.75;;;10.70;62.20;;;;;;5055108;28;20449;-67
2021/03/27 01:21:36;;;;;;;12.93;7.00;;;10.60;62.30;;;;;;5072328;28;20040;-65
2021/03/27 01:24:07;;;;;;;15.52;7.50;;;10.50;63.10;;;;;;5054788;28;20049;-65
2021/03/27 01:26:50;;;;;;;12.55;5.95;;;10.60;62.60;;;;;;5054441;28;20060;-67
2021/03/27 01:29:43;;;;;;;9.80;6.38;;;10.40;62.60;;;;;;5072282;28;20048;-67
2021/03/27 01:32:20;;;;;;;11.85;5.28;;;10.50;62.70;;;;;;5010367;28;20061;-65
2021/03/27 01:34:59;;;;;;;10.98;5.80;;;10.30;63.40;;;;;;5010280;28;20054;-65
2021/03/27 01:37:38;;;;;;;12.00;5.38;;;10.10;64.00;;;;;;5010220;28;20058;-66
2021/03/27 01:40:26;;;;;;;11.05;5.15;;;10.30;63.70;;;;;;5010110;28;20053;-66
2021/03/27 01:43:20;;;;;;;10.90;5.13;;;10.40;63.30;;;;;;4993676;28;20058;-66
2021/03/27 01:46:05;;;;;;;9.75;5.40;;;10.20;63.50;;;;;;5009544;28;20101;-65
2021/03/27 01:48:34;;;;;;;9.30;5.60;;;;;;;;;;5010286;28;20057;-64
2021/03/27 01:51:10;;;;;;;12.00;6.13;;;10.80;62.20;;;;;;5010086;28;20056;-66
2021/03/27 01:54:08;;;;;;;10.70;5.07;;;10.40;62.70;;;;;;4994715;28;20042;-66
2021/03/27 01:57:01;;;;;;;12.60;5.70;;;10.30;63.00;;;;;;4994186;28;20050;-66
2021/03/27 01:59:36;;;;;;;11.07;5.97;;;10.20;63.10;;;;;;5009648;28;20042;-65
2021/03/27 02:02:04;;;;;;;13.20;6.10;;;;;;;;;;5010221;28;20060;-65
2021/03/27 02:04:37;;;;;;;13.48;5.85;;;10.30;63.30;;;;;;4993969;28;20116;-67
2021/03/27 02:07:22;;;;;;;12.85;6.80;;;10.20;63.50;;;;;;5009630;28;20539;-67
2021/03/27 02:10:18;;;;;;;13.07;6.00;;;10.20;63.40;;;;;;5050855;28;20079;-66
2021/03/27 02:13:13;;;;;;;15.88;6.35;;;9.90;63.60;;;;;;5072166;28;20060;-66
2021/03/27 02:15:52;;;;;;;13.18;6.22;;;10.10;63.50;;;;;;5072508;28;20059;-66
2021/03/27 02:18:37;;;;;;;13.65;6.63;;;10.20;63.00;;;;;;5072140;28;20045;-66
2021/03/27 02:21:29;;;;;;;12.18;6.20;;;10.40;62.50;;;;;;5053756;28;20041;-66
2021/03/27 02:24:07;;;;;;;17.98;6.85;;;10.30;62.50;;;;;;5071049;28;20039;-66
2021/03/27 02:27:07;;;;;;;13.50;6.45;;;10.40;62.00;;;;;;5071592;28;20097;-68
2021/03/27 02:29:58;;;;;;;13.48;6.13;;;10.50;61.90;;;;;;5050112;28;20045;-67
2021/03/27 02:32:25;;;;;;;15.98;6.68;;;;;;;;;;5070285;28;20044;-67
2021/03/27 02:35:21;;;;;;;15.80;6.10;;;10.50;61.20;;;;;;5053531;28;20060;-66
2021/03/27 02:38:07;;;;;;;;;;;10.50;61.60;;;;;;5052174;28;20545;-68
2021/03/27 02:40:41;;;;;;;13.20;6.13;;;10.40;61.20;;;;;;5058075;28;19935;-66
2021/03/27 02:43:27;;;;;;;14.77;6.28;;;10.60;60.50;;;;;;5071358;28;20048;-66
2021/03/27 02:46:05;;;;;;;21.92;7.57;;;10.60;60.70;;;;;;5063599;28;20052;-65
2021/03/27 02:49:19;;;;;;;14.30;6.15;;;10.50;60.70;;;;;;5075725;28;20051;-67
2021/03/27 02:52:09;;;;;;;10.45;5.63;;;10.50;60.60;;;;;;5013299;28;20556;-67
2021/03/27 02:54:57;;;;;;;13.20;6.85;;;10.50;60.70;;;;;;5013987;28;20048;-67
2021/03/27 02:57:49;;;;;;;18.80;6.40;;;10.50;60.60;;;;;;5013642;28;20062;-67
2021/03/27 03:00:48;;;;;;;17.30;6.35;;;10.60;60.50;;;;;;4996786;28;20108;-66
2021/03/27 03:03:23;;;;;;;14.50;6.13;;;10.50;60.60;;;;;;5033574;28;20180;-64
2021/03/27 03:06:00;;;;;;;18.25;6.15;;;10.30;61.20;;;;;;5034130;28;20409;-66
2021/03/27 03:08:51;;;;;;;14.98;6.40;;;10.30;61.60;;;;;;5031735;28;20107;-66
2021/03/27 03:11:27;;;;;;;18.25;7.07;;;10.30;61.30;;;;;;5012665;28;20081;-66
2021/03/27 03:14:09;;;;;;;18.95;5.97;;;10.40;61.10;;;;;;5012508;28;20057;-67
2021/03/27 03:17:03;;;;;;;15.27;6.18;;;10.60;60.50;;;;;;5012915;28;20089;-66
2021/03/27 03:19:41;;;;;;;20.83;7.10;;;;;;;;;;5032198;28;20051;-65
2021/03/27 03:22:18;;;;;;;;;;;10.60;60.20;;;;;;5053575;28;20286;-67
2021/03/27 03:24:51;;;;;;;16.02;6.20;;;10.70;59.60;;;;;;5094740;28;19942;-66
2021/03/27 03:27:49;;;;;;;13.18;6.25;;;10.90;59.50;;;;;;5094804;28;20462;-68
2021/03/27 03:30:16;;;;;;;16.45;7.47;;;;;;;;;;5071748;28;20443;-65
2021/03/27 03:32:43;;;;;;;;;;;10.90;59.40;;;;;;5095263;28;20497;-66
2021/03/27 03:35:21;;;;;;;15.93;6.38;;;10.60;60.10;;;;;;5094600;28;19924;-65
2021/03/27 03:38:06;;;;;;;14.35;5.93;;;10.50;60.50;;;;;;5094962;28;20067;-66
2021/03/27 03:41:02;;;;;;;25.80;6.68;;;10.50;60.40;;;;;;5094479;28;20052;-68
2021/03/27 03:43:36;;;;;;;19.08;6.20;;;10.50;60.30;;;;;;5075951;28;20040;-64
2021/03/27 03:46:14;;;;;;;18.55;5.55;;;10.70;60.10;;;;;;5094482;28;20058;-67
2021/03/27 03:48:50;;;;;;;17.83;5.18;;;10.60;60.10;;;;;;5094536;28;20482;-67
2021/03/27 03:51:45;;;;;;;15.43;5.50;;;10.50;60.70;;;;;;5094716;28;20028;-64
2021/03/27 03:54:12;;;;;;;20.45;5.40;;;;;;;;;;5072485;28;20055;-67
2021/03/27 03:57:00;;;;;;;23.95;7.05;;;10.40;60.90;;;;;;5094204;28;20104;-66
2021/03/27 03:59:53;;;;;;;16.75;5.28;;;10.50;60.30;;;;;;5094530;28;20047;-66
2021/03/27 04:02:37;;;;;;;19.60;6.05;;;10.40;60.70;;;;;;5045874;28;20056;-66
2021/03/27 04:05:18;;;;;;;11.60;4.93;;;10.40;60.80;;;;;;5094285;28;20051;-66
2021/03/27 04:08:00;;;;;;;15.57;6.03;;;10.40;60.10;;;;;;5094279;28;20048;-66
2021/03/27 04:10:30;;;;;;;13.65;4.75;;;10.50;59.60;;;;;;5093773;28;20051;-65
2021/03/27 04:13:22;;;;;;;14.52;4.38;;;10.30;59.50;;;;;;5075962;28;20509;-65
2021/03/27 04:15:59;;;;;;;17.20;4.85;;;10.20;59.10;;;;;;5094094;28;20040;-67
2021/03/27 04:18:45;;;;;;;10.63;4.07;;;10.10;59.20;;;;;;5094160;28;20055;-67
2021/03/27 04:21:22;;;;;;;14.07;5.15;;;10.20;58.90;;;;;;5066556;28;20477;-67
2021/03/27 04:24:07;;;;;;;6.18;3.75;;;10.10;58.60;;;;;;5093530;28;20044;-64
2021/03/27 04:26:57;;;;;;;10.98;4.13;;;10.10;58.70;;;;;;5070682;28;20048;-64
2021/03/27 04:29:42;;;;;;;8.38;4.38;;;10.30;58.00;;;;;;5093485;28;20413;-67
2021/03/27 04:32:11;;;;;;;11.95;4.18;;;10.20;58.00;;;;;;5093926;28;20040;-64
2021/03/27 04:34:51;;;;;;;12.75;4.38;;;10.30;58.20;;;;;;5093929;28;20506;-66
2021/03/27 04:37:32;;;;;;;8.20;4.35;;;10.40;57.80;;;;;;5094017;28;20078;-66
2021/03/27 04:40:24;;;;;;;9.48;4.28;;;10.40;57.90;;;;;;5066981;28;20484;-66
2021/03/27 04:43:00;;;;;;;12.52;4.80;;;10.40;57.90;;;;;;5093006;28;20410;-67
2021/03/27 04:45:37;;;;;;;11.77;4.60;;;10.20;58.30;;;;;;5093439;28;20048;-68
2021/03/27 04:48:04;;;;;;;11.77;5.10;;;;;;;;;;5093317;28;20510;-66
2021/03/27 04:51:15;;;;;;;16.58;5.63;;;10.20;59.30;;;;;;5093201;28;20089;-63
2021/03/27 04:54:00;;;;;;;14.35;5.43;;;10.20;60.20;;;;;;5068964;28;20067;-66
2021/03/27 04:56:43;;;;;;;16.90;5.78;;;10.30;60.40;;;;;;5093091;28;20390;-65
2021/03/27 04:59:28;;;;;;;15.13;6.30;;;10.40;60.20;;;;;;5093295;28;20047;-67
2021/03/27 05:02:06;;;;;;;15.77;6.28;;;10.40;60.00;;;;;;5092960;28;20032;-65
2021/03/27 05:04:54;;;;;;;15.63;6.05;;;10.00;61.00;;;;;;5093152;28;20044;-65
2021/03/27 05:07:43;;;;;;;14.07;5.68;;;10.10;61.00;;;;;;5068436;28;20044;-64
2021/03/27 05:10:33;;;;;;;20.65;7.10;;;10.10;60.90;;;;;;5074693;28;20056;-64
2021/03/27 05:13:00;;;;;;;11.88;5.72;;;;;;;;;;4977719;28;20058;-65
2021/03/27 05:15:27;;;;;;;14.93;6.60;;;;;;;;;;5010375;28;20143;-65
2021/03/27 05:18:03;;;;;;;;;;;10.10;60.90;;;;;;5010992;28;20456;-66
2021/03/27 05:20:30;;;;;;;15.57;6.28;;;;;;;;;;4994125;28;19925;-65
2021/03/27 05:23:11;;;;;;;21.40;6.25;;;10.50;60.10;;;;;;5010055;28;20073;-65
2021/03/27 05:25:43;;;;;;;17.27;7.28;;;10.40;59.90;;;;;;5010404;28;20054;-67
2021/03/27 05:28:47;;;;;;;15.10;5.55;;;9.90;60.30;;;;;;5010498;28;20054;-67
2021/03/27 05:31:27;;;;;;;10.38;5.35;;;9.90;60.70;;;;;;5010100;28;20073;-67
2021/03/27 05:34:15;;;;;;;12.93;5.60;;;10.10;60.30;;;;;;4994203;28;20539;-67
2021/03/27 05:36:54;;;;;;;9.23;4.22;;;9.90;58.90;;;;;;5009891;28;20061;-67
2021/03/27 05:39:38;;;;;;;14.00;4.63;;;9.60;59.90;;;;;;5010151;28;20061;-67
2021/03/27 05:42:26;;;;;;;11.77;4.55;;;9.70;59.60;;;;;;4993658;28;20117;-66
2021/03/27 05:45:41;;;;;;;18.65;5.97;;;9.60;60.00;;;;;;5009910;28;20097;-67
2021/03/27 05:48:31;;;;;;;18.67;4.20;;;9.10;59.40;;;;;;5010097;28;20072;-69
2021/03/27 05:51:29;;;;;;;6.03;3.63;;;8.10;61.10;;;;;;5082754;28;20105;-67
2021/03/27 05:54:34;;;;;;;9.95;3.95;;;7.50;63.50;;;;;;5071841;28;20470;-69
2021/03/27 05:57:01;;;;;;;12.13;4.95;;;;;;;;;;5091973;28;20051;-69
2021/03/27 06:00:08;;;;;;;7.50;4.43;;;7.30;65.70;;;;;;5092260;28;20059;-69
2021/03/27 06:03:13;;;;;;;11.63;4.95;;;7.60;64.80;;;;;;5074284;28;20056;-69
2021/03/27 06:06:21;;;;;;;11.70;5.22;;;7.70;64.90;;;;;;5068530;28;20510;-69
2021/03/27 06:09:12;;;;;;;6.07;4.30;;;8.00;64.00;;;;;;5091766;28;20056;-70
2021/03/27 06:12:16;;;;;;;8.38;4.30;;;8.30;63.10;;;;;;5073975;28;20101;-67
2021/03/27 06:14:42;;;;;;;9.40;4.10;;;;;;;;;;5091430;28;20061;-69
2021/03/27 06:17:35;;;;;;;7.03;4.05;;;8.50;63.00;;;;;;5091556;28;20453;-68
2021/03/27 06:20:02;;;;;;;12.68;4.47;;;;;;;;;;5087759;28;20540;-68
2021/03/27 06:22:29;;;;;;;9.07;4.28;;;;;;;;;;5060840;28;20040;-67
2021/03/27 06:25:24;;;;;;;11.23;4.30;;;8.50;63.30;;;;;;5064215;28;20043;-69
2021/03/27 06:28:19;;;;;;;6.45;3.88;;;8.70;62.60;;;;;;5067242;28;20434;-67
2021/03/27 06:31:07;;;;;;;14.60;4.63;;;8.90;62.50;;;;;;5084235;28;20422;-67
2021/03/27 06:33:56;;;;;;;11.15;4.38;;;8.90;62.50;;;;;;5063327;28;20560;-68
2021/03/27 06:36:29;;;;;;;11.98;4.25;;;9.10;61.90;;;;;;5063904;28;20045;-65
2021/03/27 06:39:19;;;;;;;11.13;4.40;;;9.20;61.50;;;;;;5077850;28;20044;-67
2021/03/27 06:41:46;;;;;;;16.23;4.93;;;;;;;;;;5069113;28;20101;-68
2021/03/27 06:44:18;;;;;;;;;;;9.20;61.20;;;;;;5087674;28;20048;-69
2021/03/27 06:47:31;;;;;;;7.78;4.05;;;9.20;61.00;;;;;;5040811;28;19927;-66
2021/03/27 06:50:33;;;;;;;14.10;4.40;;;9.20;61.20;;;;;;5087211;28;20078;-68
2021/03/27 06:53:37;;;;;;;17.58;4.13;;;9.40;60.70;;;;;;5086933;28;20098;-67
2021/03/27 06:56:29;;;;;;;14.98;4.10;;;10.00;61.40;;;;;;5087525;28;20040;-68
2021/03/27 06:59:19;;;;;;;13.23;4.20;;;9.50;61.50;;;;;;5046063;28;20053;-67
2021/03/27 07:02:12;;;;;;;9.43;4.53;;;9.70;61.50;;;;;;5086139;28;20054;-65
2021/03/27 07:04:47;;;;;;;10.13;4.15;;;9.70;61.50;;;;;;4996470;28;20058;-65
2021/03/27 07:07:14;;;;;;;12.27;4.00;;;;;;;;;;5001374;28;20169;-66
2021/03/27 07:09:58;;;;;;;;;;;9.80;61.20;;;;;;5000954;28;20061;-69
2021/03/27 07:12:43;;;;;;;8.95;3.97;;;10.10;60.70;;;;;;5008653;28;19922;-67
2021/03/27 07:15:10;;;;;;;8.27;4.05;;;;;;;;;;5008850;28;20061;-66
2021/03/27 07:18:10;;;;;;;11.65;4.15;;;10.30;59.80;;;;;;5007913;28;20118;-68
2021/03/27 07:21:25;;;;;;;8.82;4.53;;;10.40;59.20;;;;;;5008740;28;20050;-67
2021/03/27 07:24:28;;;;;;;16.17;3.83;;;10.50;59.60;;;;;;5004721;28;20154;-66
2021/03/27 07:27:28;;;;;;;7.70;3.78;;;10.40;59.10;;;;;;5000326;28;20089;-66
2021/03/27 07:29:55;;;;;;;10.02;3.78;;;;;;;;;;4997368;28;20054;-66
2021/03/27 07:32:40;;;;;;;;;;;10.40;59.40;;;;;;5012554;28;20504;-65
2021/03/27 07:35:25;;;;;;;15.65;4.82;;;10.70;60.00;;;;;;5012664;28;20026;-66
2021/03/27 07:38:06;;;;;;;9.88;4.05;;;10.70;59.10;;;;;;5012615;28;20456;-66
2021/03/27 07:40:51;;;;;;;11.10;3.78;;;10.80;58.80;;;;;;5014998;28;20077;-66
2021/03/27 07:43:32;;;;;;;10.32;3.80;;;10.70;58.60;;;;;;5066745;28;20048;-67
2021/03/27 07:46:20;;;;;;;14.80;4.15;;;10.70;58.40;;;;;;5094001;28;20040;-63
2021/03/27 07:49:16;;;;;;;12.95;4.20;;;10.60;58.40;;;;;;5094359;28;20040;-65
2021/03/27 07:52:04;;;;;;;9.25;4.05;;;10.50;59.00;;;;;;5094365;28;20036;-66
2021/03/27 07:55:07;;;;;;;12.07;4.60;;;10.10;59.80;;;;;;5094043;28;20063;-66
2021/03/27 07:57:58;;;;;;;10.68;4.60;;;9.90;56.20;;;;;;4995193;28;20054;-65
2021/03/27 08:00:35;;;;;;;4.13;3.10;;;9.20;55.30;;;;;;5012138;28;20046;-66
2021/03/27 08:03:35;;;;;;;5.13;2.95;;;8.70;57.30;;;;;;5012128;28;20069;-65
2021/03/27 08:06:22;;;;;;;8.30;3.20;;;8.60;58.10;;;;;;5011742;28;20487;-66
2021/03/27 08:09:13;;;;;;;9.55;3.78;;;8.80;57.60;;;;;;5011133;28;20104;-67
2021/03/27 08:12:19;;;;;;;8.10;3.35;;;8.60;58.10;;;;;;5011818;28;20054;-66
2021/03/27 08:14:59;;;;;;;6.03;3.15;;;8.50;58.30;;;;;;5011831;28;20053;-67
2021/03/27 08:17:36;;;;;;;3.80;3.42;;;8.40;58.50;;;;;;5011109;28;20044;-65
2021/03/27 08:20:21;;;;;;;10.65;3.65;;;8.40;59.90;;;;;;4994387;28;20116;-67
2021/03/27 08:23:13;;;;;;;6.65;3.22;;;8.30;59.30;;;;;;5010674;28;20150;-67
2021/03/27 08:26:26;;;;;;;8.38;3.53;;;8.50;59.40;;;;;;5010642;28;20421;-67
2021/03/27 08:29:28;;;;;;;3.58;3.20;;;8.60;59.00;;;;;;4971347;28;20371;-65
2021/03/27 08:32:26;;;;;;;6.82;3.40;;;8.80;58.90;;;;;;4971277;28;20105;-66
2021/03/27 08:35:23;;;;;;;6.35;3.30;;;8.80;58.80;;;;;;4987966;28;20045;-66
2021/03/27 08:38:34;;;;;;;7.68;3.60;;;8.70;59.00;;;;;;5030514;28;20036;-66
2021/03/27 08:41:25;;;;;;;7.80;3.50;;;8.80;58.60;;;;;;5030311;28;20142;-64
2021/03/27 08:44:30;;;;;;;6.90;3.72;;;9.20;58.50;;;;;;5029444;28;20060;-63
2021/03/27 08:47:17;;;;;;;6.77;3.43;;;9.20;58.50;;;;;;5020178;28;20049;-66
2021/03/27 08:50:18;;;;;;;9.48;3.30;;;9.40;58.40;;;;;;5029939;28;20127;-67
2021/03/27 08:53:21;;;;;;;11.93;4.00;;;9.60;58.30;;;;;;5029652;28;20112;-65
2021/03/27 08:56:19;;;;;;;17.63;4.70;;;9.60;58.40;;;;;;5013449;28;20060;-66
2021/03/27 08:59:24;;;;;;;18.00;4.97;;;9.70;58.20;;;;;;5005418;28;20049;-66
2021/03/27 09:02:24;;;;;;;7.53;3.47;;;9.90;58.10;;;;;;5029385;28;20183;-65
2021/03/27 09:05:29;;;;;;;10.75;3.50;;;9.80;58.10;;;;;;5048422;28;20055;-66
2021/03/27 09:08:23;;;;;;;14.98;4.53;;;9.80;58.60;;;;;;5092349;28;20044;-68
2021/03/27 09:11:27;;;;;;;18.58;6.03;;;10.00;58.80;;;;;;5089906;28;20040;-66
2021/03/27 09:13:54;;;;;;;20.38;4.60;;;;;;;;;;5091239;28;20403;-67
2021/03/27 09:16:37;;;;;;;24.38;4.55;;;10.10;58.20;;;;;;5073785;28;20061;-65
2021/03/27 09:19:29;;;;;;;17.38;4.65;;;10.30;58.90;;;;;;5092246;28;20072;-66
2021/03/27 09:22:20;;;;;;;17.52;4.85;;;10.40;59.10;;;;;;5064095;28;20118;-66
2021/03/27 09:25:09;;;;;;;11.32;4.38;;;10.50;58.90;;;;;;5073925;28;20048;-68
2021/03/27 09:27:44;;;;;;;12.50;4.10;;;10.60;57.50;;;;;;5078006;28;20064;-66
2021/03/27 09:30:39;;;;;;;30.52;4.93;;;10.60;57.60;;;;;;5074395;28;20056;-67
2021/03/27 09:33:23;;;;;;;10.23;3.95;;;10.70;57.50;;;;;;5071654;28;20039;-67
2021/03/27 09:36:24;;;;;;;16.42;4.38;;;10.70;55.90;;;;;;5075619;28;20060;-64
2021/03/27 09:39:19;;;;;;;18.35;3.95;;;10.60;55.70;;;;;;5074404;28;20571;-68
2021/03/27 09:42:31;;;;;;;15.65;4.80;;;10.70;55.80;;;;;;5072976;28;20478;-68
2021/03/27 09:45:31;;;;;;;13.82;4.60;;;10.60;55.80;;;;;;5070881;28;20044;-67
2021/03/27 09:48:31;;;;;;;13.85;3.78;;;10.50;56.90;;;;;;5076530;28;20114;-65
2021/03/27 09:51:16;;;;;;;9.48;3.80;;;10.30;55.60;;;;;;5056311;28;20499;-66
2021/03/27 09:54:03;;;;;;;16.17;4.68;;;10.30;57.00;;;;;;5072218;28;20068;-66
2021/03/27 09:56:56;;;;;;;10.40;3.50;;;10.40;56.30;;;;;;5077015;28;20040;-64
2021/03/27 09:59:34;;;;;;;20.27;4.18;;;10.40;57.10;;;;;;5073960;28;20064;-66
2021/03/27 10:02:29;;;;;;;9.15;3.72;;;10.40;57.70;;;;;;5071799;28;20139;-65
2021/03/27 10:04:55;;;;;;;19.25;4.70;;;;;;;;;;5076618;28;20445;-66
2021/03/27 10:07:42;;;;;;;;;;;10.60;56.10;;;;;;5076435;28;20068;-65
2021/03/27 10:10:09;;;;;;;17.80;4.95;;;;;;;;;;5074256;28;19943;-68
2021/03/27 10:13:04;;;;;;;11.90;3.70;;;11.10;54.90;;;;;;5070342;28;20040;-65
2021/03/27 10:15:51;;;;;;;7.47;3.35;;;10.90;52.90;;;;;;5070993;28;20569;-63
2021/03/27 10:18:22;;;;;;;;;;;10.80;53.90;;;;;;5059116;28;20087;-66
2021/03/27 10:20:57;;;;;;;18.70;3.83;;;11.20;53.80;;;;;;5083452;28;19920;-67
2021/03/27 10:23:39;;;;;;;13.23;3.42;;;11.30;50.10;;;;;;5070848;28;20494;-65
2021/03/27 10:26:29;;;;;;;15.85;3.85;;;11.30;50.20;;;;;;5052591;28;20087;-67
2021/03/27 10:29:33;;;;;;;12.70;3.65;;;11.40;48.90;;;;;;5069168;28;20052;-65
2021/03/27 10:32:14;;;;;;;13.05;3.30;;;11.40;47.30;;;;;;5070401;28;20071;-67
2021/03/27 10:34:42;;;;;;;12.05;3.40;;;11.50;47.20;;;;;;5070576;28;20052;-67
2021/03/27 10:37:29;;;;;;;13.43;3.40;;;11.60;44.20;;;;;;5070235;28;20040;-67
2021/03/27 10:40:33;;;;;;;7.10;3.53;;;11.80;41.70;;;;;;5071079;28;20060;-65
2021/03/27 10:43:26;;;;;;;10.45;3.17;;;11.80;41.30;;;;;;5070445;28;20461;-66
2021/03/27 10:45:53;;;;;;;8.07;3.03;;;;;;;;;;5070872;28;20116;-67
2021/03/27 10:48:41;;;;;;;8.18;3.10;;;11.80;39.70;;;;;;5056131;28;20059;-66
2021/03/27 10:51:24;;;;;;;11.82;3.30;;;12.30;40.80;;;;;;5070136;28;20445;-65
2021/03/27 10:54:26;;;;;;;12.98;3.10;;;12.80;41.30;;;;;;5070730;28;20048;-68
2021/03/27 10:56:53;;;;;;;4.63;2.97;;;;;;;;;;5069996;28;20440;-67
2021/03/27 10:59:30;;;;;;;11.23;3.28;;;13.30;41.50;;;;;;5070693;28;20398;-66
2021/03/27 11:02:18;;;;;;;12.27;3.30;;;13.40;41.10;;;;;;5085989;28;20040;-66
2021/03/27 11:04:54;;;;;;;12.27;3.40;;;;;;;;;;5052417;28;20051;-65
2021/03/27 11:08:01;;;;;;;9.00;3.40;;;13.70;42.60;;;;;;5074314;28;20045;-65
2021/03/27 11:11:00;;;;;;;13.20;3.10;;;14.10;36.40;;;;;;5073964;28;20490;-64
2021/03/27 11:13:32;;;;;;;11.80;2.90;;;13.90;37.00;;;;;;5074358;28;20098;-68
2021/03/27 11:16:35;;;;;;;8.43;3.05;;;13.40;36.10;;;;;;5039618;28;20041;-67
2021/03/27 11:19:31;;;;;;;10.02;3.17;;;12.40;41.10;;;;;;5063661;28;20060;-67
2021/03/27 11:22:03;;;;;;;9.55;3.38;;;12.00;43.10;;;;;;5074245;28;20052;-67
2021/03/27 11:24:34;;;;;;;10.55;3.38;;;;;;;;;;5073578;28;20518;-66
2021/03/27 11:27:20;;;;;;;4.05;2.70;;;11.60;39.80;;;;;;5077556;28;20041;-64
2021/03/27 11:30:20;;;;;;;6.00;2.80;;;11.20;43.10;;;;;;4354021;28;10000754;-65
2021/03/27 11:33:02;;;;;;;7.68;2.85;;;11.20;45.30;;;;;;5071493;28;20048;-66
2021/03/27 11:35:36;;;;;;;12.85;3.25;;;11.00;48.30;;;;;;5071739;28;20040;-66
2021/03/27 11:38:09;;;;;;;11.68;4.25;;;11.30;48.50;;;;;;5071560;28;20116;-64
2021/03/27 11:40:46;;;;;;;13.43;3.53;;;11.70;48.30;;;;;;5071472;28;20044;-65
2021/03/27 11:43:30;;;;;;;8.90;3.00;;;11.80;45.70;;;;;;5053650;28;20044;-63
2021/03/27 11:46:11;;;;;;;15.15;3.50;;;12.00;43.30;;;;;;5071411;28;20045;-64
2021/03/27 11:48:48;;;;;;;10.27;3.65;;;12.00;43.10;;;;;;5071526;28;20040;-65
2021/03/27 11:51:29;;;;;;;12.75;3.33;;;12.00;43.30;;;;;;5071110;28;20044;-67
2021/03/27 11:54:04;;;;;;;17.17;3.38;;;11.80;42.90;;;;;;5070589;28;20059;-65
2021/03/27 11:56:39;;;;;;;10.25;3.17;;;11.90;41.40;;;;;;5052880;28;20143;-65
2021/03/27 11:59:42;;;;;;;10.93;3.57;;;11.90;41.50;;;;;;5070835;28;20109;-66
2021/03/27 12:02:41;;;;;;;13.18;3.17;;;12.30;42.60;;;;;;5070904;28;20404;-65
2021/03/27 12:05:31;;;;;;;10.68;3.40;;;12.70;39.40;;;;;;5070669;28;20055;-65
2021/03/27 12:08:44;;;;;;;10.05;3.10;;;13.10;39.70;;;;;;5070574;28;20041;-67
2021/03/27 12:11:46;;;;;;;9.73;3.10;;;13.40;37.60;;;;;;5061269;28;20051;-65
2021/03/27 12:14:25;;;;;;;12.30;3.08;;;13.60;37.90;;;;;;5091092;28;20493;-68
2021/03/27 12:17:14;;;;;;;17.75;4.32;;;13.50;38.90;;;;;;5089343;28;20494;-66
2021/03/27 12:20:12;;;;;;;10.88;3.75;;;13.50;39.40;;;;;;5083024;28;20063;-65
2021/03/27 12:22:46;;;;;;;14.93;3.25;;;13.50;38.30;;;;;;5088687;28;20459;-66
2021/03/27 12:25:30;;;;;;;10.25;2.88;;;13.40;37.60;;;;;;5090863;28;20048;-65
2021/03/27 12:28:22;;;;;;;10.25;2.80;;;13.40;38.30;;;;;;5071005;28;20048;-65
2021/03/27 12:31:01;;;;;;;10.55;3.13;;;13.30;37.10;;;;;;5067669;28;20056;-65
2021/03/27 12:33:46;;;;;;;12.38;3.38;;;13.50;38.40;;;;;;5090092;28;20055;-66
2021/03/27 12:36:38;;;;;;;13.10;3.22;;;13.50;38.40;;;;;;5090106;28;20508;-65
2021/03/27 12:39:28;;;;;;;9.63;3.10;;;13.70;38.00;;;;;;5090456;28;20044;-66
2021/03/27 12:42:01;;;;;;;12.13;3.33;;;14.00;38.60;;;;;;5066410;28;20051;-66
2021/03/27 12:44:36;;;;;;;14.45;3.47;;;13.70;37.50;;;;;;5083830;28;20131;-67
2021/03/27 12:47:37;;;;;;;16.20;4.00;;;13.60;38.00;;;;;;5090348;28;20040;-64
2021/03/27 12:50:19;;;;;;;14.23;3.25;;;13.50;37.70;;;;;;5088998;28;20463;-65
2021/03/27 12:53:25;;;;;;;12.35;3.50;;;13.50;39.70;;;;;;5088808;28;20055;-65
2021/03/27 12:56:14;;;;;;;6.93;3.05;;;13.50;38.00;;;;;;5071543;28;20044;-65
2021/03/27 12:58:53;;;;;;;10.85;3.13;;;13.30;37.90;;;;;;5063145;28;20086;-64
2021/03/27 13:01:39;;;;;;;18.55;3.35;;;13.50;39.20;;;;;;5089670;28;20048;-66
2021/03/27 13:04:23;;;;;;;12.67;3.60;;;13.60;39.10;;;;;;5089508;28;20478;-65
2021/03/27 13:07:17;;;;;;;10.50;3.50;;;13.60;38.90;;;;;;5071752;28;20520;-64
2021/03/27 13:10:09;;;;;;;14.95;3.33;;;13.60;39.70;;;;;;5089440;28;20071;-66
2021/03/27 13:12:36;;;;;;;20.13;3.60;;;;;;;;;;5072014;28;20529;-66
2021/03/27 13:15:23;;;;;;;8.70;3.10;;;14.20;38.70;;;;;;5066768;28;20052;-65
2021/03/27 13:18:04;;;;;;;12.27;3.42;;;14.50;36.20;;;;;;5063783;28;20081;-67
2021/03/27 13:20:32;;;;;;;14.68;3.80;;;;;;;;;;5078678;28;20044;-65
2021/03/27 13:23:21;;;;;;;13.07;3.05;;;15.20;33.30;;;;;;5065679;28;20094;-65
2021/03/27 13:26:03;;;;;;;12.38;3.63;;;15.00;33.80;;;;;;5080071;28;20101;-65
2021/03/27 13:28:50;;;;;;;14.80;3.60;;;14.80;33.50;;;;;;5082651;28;20048;-65
2021/03/27 13:31:20;;;;;;;13.93;4.05;;;14.80;33.60;;;;;;5056638;28;20049;-65
2021/03/27 13:34:24;;;;;;;10.23;3.30;;;15.10;34.10;;;;;;5077597;28;20094;-66
2021/03/27 13:37:14;;;;;;;14.63;3.83;;;15.10;33.40;;;;;;5053798;28;20060;-65
2021/03/27 13:39:48;;;;;;;15.98;3.30;;;15.10;34.00;;;;;;5083870;28;20048;-63
2021/03/27 13:42:44;;;;;;;14.60;3.55;;;15.00;31.90;;;;;;5062060;28;20041;-65
2021/03/27 13:45:38;;;;;;;12.85;2.85;;;14.50;33.30;;;;;;5072729;28;20093;-66
2021/03/27 13:48:33;;;;;;;18.13;3.88;;;14.10;32.30;;;;;;5083258;28;20040;-65
2021/03/27 13:51:20;;;;;;;11.63;3.10;;;13.70;32.80;;;;;;5077822;28;20043;-66
2021/03/27 13:54:18;;;;;;;12.15;3.28;;;13.80;34.80;;;;;;5074274;28;20063;-65
2021/03/27 13:57:26;;;;;;;13.75;3.25;;;14.20;33.00;;;;;;5052083;28;20516;-65
2021/03/27 13:59:53;;;;;;;13.18;3.50;;;;;;;;;;5079308;28;20060;-64
2021/03/27 14:02:54;;;;;;;13.68;3.35;;;14.30;31.50;;;;;;5084103;28;20067;-64
2021/03/27 14:05:39;;;;;;;11.43;3.70;;;14.20;31.90;;;;;;5084344;28;20509;-63
2021/03/27 14:08:09;;;;;;;18.90;3.90;;;14.20;33.90;;;;;;5083972;28;20131;-64
2021/03/27 14:10:40;;;;;;;12.65;3.92;;;14.20;34.20;;;;;;5053231;28;20052;-65
2021/03/27 14:13:28;;;;;;;16.73;4.00;;;14.40;34.90;;;;;;5071529;28;20516;-66
2021/03/27 14:16:04;;;;;;;16.00;2.90;;;;;;;;;;5069220;28;20063;-64
2021/03/27 14:18:31;;;;;;;11.82;3.70;;;14.30;34.00;;;;;;5052725;28;20119;-64
2021/03/27 14:21:18;;;;;;;12.65;3.55;;;14.20;34.00;;;;;;5071032;28;20412;-66
2021/03/27 14:24:32;;;;;;;9.90;3.30;;;14.40;33.30;;;;;;4717969;28;10000796;-64
2021/03/27 14:27:05;;;;;;;9.40;3.05;;;;;;;;;;5050651;28;20131;-64
2021/03/27 14:29:53;;;;;;;13.63;2.92;;;14.50;33.60;;;;;;5068265;28;20048;-66